createdAt,value
2018-09-22T00:01:09.765Z,12.10
2018-09-22T00:03:37.532Z,12.10
2018-09-22T00:06:05.328Z,12.00
2018-09-22T00:08:33.084Z,12.00
2018-09-22T00:11:00.931Z,11.90
2018-09-22T00:13:28.681Z,11.80
2018-09-22T00:15:56.561Z,11.90
2018-09-22T00:18:24.428Z,11.90
2018-09-22T00:20:52.272Z,11.80
2018-09-22T00:23:20.082Z,11.80
2018-09-22T00:25:47.932Z,11.80
2018-09-22T00:28:15.756Z,11.70
2018-09-22T00:30:43.648Z,11.60
2018-09-22T00:33:11.452Z,11.60
2018-09-22T00:38:50.161Z,11.50
2018-09-22T00:41:18.050Z,11.50
2018-09-22T00:43:45.768Z,11.40
2018-09-22T00:46:13.600Z,11.50
2018-09-22T00:48:41.405Z,11.40
2018-09-22T00:51:09.280Z,11.50
2018-09-22T00:53:37.133Z,11.50
2018-09-22T00:56:04.961Z,11.50
2018-09-22T00:58:32.813Z,11.40
2018-09-22T01:01:00.628Z,11.40
2018-09-22T01:03:28.453Z,11.30
2018-09-22T01:05:56.271Z,11.30
2018-09-22T01:08:24.144Z,11.30
2018-09-22T01:10:52.013Z,11.20
2018-09-22T01:13:19.798Z,11.10
2018-09-22T01:15:47.638Z,11.10
2018-09-22T01:18:15.329Z,11.00
2018-09-22T01:20:43.140Z,11.00
2018-09-22T01:23:10.928Z,11.00
2018-09-22T01:25:38.719Z,11.00
2018-09-22T01:28:06.681Z,11.00
2018-09-22T01:30:34.508Z,11.00
2018-09-22T01:33:02.291Z,11.00
2018-09-22T01:35:30.048Z,11.00
2018-09-22T01:37:57.822Z,11.00
2018-09-22T01:40:32.352Z,11.00
2018-09-22T01:43:00.193Z,11.00
2018-09-22T01:45:28.075Z,11.00
2018-09-22T01:47:56.009Z,10.90
2018-09-22T01:50:23.838Z,10.90
2018-09-22T01:52:51.791Z,11.00
2018-09-22T01:55:19.696Z,11.10
2018-09-22T01:57:47.581Z,11.10
2018-09-22T02:00:15.359Z,11.10
2018-09-22T02:02:43.185Z,11.10
2018-09-22T02:05:11.052Z,11.20
2018-09-22T02:07:38.869Z,11.20
2018-09-22T02:10:06.777Z,11.10
2018-09-22T02:12:34.741Z,11.10
2018-09-22T02:15:02.534Z,11.10
2018-09-22T02:17:30.351Z,11.10
2018-09-22T02:19:58.180Z,11.10
2018-09-22T02:22:26.041Z,11.00
2018-09-22T02:24:53.791Z,11.10
2018-09-22T02:27:21.701Z,11.10
2018-09-22T02:29:49.552Z,11.10
2018-09-22T02:32:17.508Z,11.10
2018-09-22T02:34:45.351Z,11.10
2018-09-22T02:37:13.150Z,11.10
2018-09-22T02:39:41.006Z,11.10
2018-09-22T02:42:08.784Z,11.20
2018-09-22T02:44:36.715Z,11.10
2018-09-22T02:47:04.694Z,11.10
2018-09-22T02:49:32.639Z,11.10
2018-09-22T02:52:00.534Z,11.10
2018-09-22T02:54:28.444Z,11.10
2018-09-22T02:56:56.264Z,11.10
2018-09-22T02:59:24.066Z,11.10
2018-09-22T03:01:51.856Z,11.10
2018-09-22T03:04:19.809Z,11.10
2018-09-22T03:06:47.954Z,11.10
2018-09-22T03:09:15.702Z,11.10
2018-09-22T03:11:43.517Z,11.10
2018-09-22T03:14:11.292Z,11.20
2018-09-22T03:16:39.769Z,11.20
2018-09-22T03:19:07.550Z,11.10
2018-09-22T03:21:35.367Z,11.20
2018-09-22T03:24:03.185Z,11.20
2018-09-22T03:26:30.966Z,11.20
2018-09-22T03:28:58.688Z,11.30
2018-09-22T03:31:26.572Z,11.30
2018-09-22T03:33:54.390Z,11.40
2018-09-22T03:36:22.192Z,11.40
2018-09-22T03:38:50.030Z,11.40
2018-09-22T03:41:17.869Z,11.40
2018-09-22T03:43:45.897Z,11.40
2018-09-22T03:46:13.724Z,11.40
2018-09-22T03:48:41.554Z,11.40
2018-09-22T03:51:09.476Z,11.40
2018-09-22T03:53:37.278Z,11.40
2018-09-22T03:56:05.198Z,11.40
2018-09-22T03:58:33.109Z,11.40
2018-09-22T04:01:00.976Z,11.30
2018-09-22T04:03:28.832Z,11.30
2018-09-22T04:05:56.696Z,11.30
2018-09-22T04:08:24.555Z,11.30
2018-09-22T04:10:52.369Z,11.30
2018-09-22T04:13:20.190Z,11.30
2018-09-22T04:15:47.983Z,11.30
2018-09-22T04:18:15.802Z,11.30
2018-09-22T04:20:43.666Z,11.30
2018-09-22T04:23:11.584Z,11.30
2018-09-22T04:25:39.634Z,11.40
2018-09-22T04:28:07.504Z,11.40
2018-09-22T04:30:35.290Z,11.30
2018-09-22T04:33:03.112Z,11.30
2018-09-22T04:35:30.950Z,11.30
2018-09-22T04:37:58.829Z,11.20
2018-09-22T04:40:26.720Z,11.20
2018-09-22T04:42:54.579Z,11.20
2018-09-22T04:45:22.341Z,11.20
2018-09-22T04:47:50.140Z,11.30
2018-09-22T04:50:18.053Z,11.30
2018-09-22T04:52:45.876Z,11.30
2018-09-22T04:55:13.853Z,11.30
2018-09-22T04:57:41.666Z,11.30
2018-09-22T05:00:09.730Z,11.30
2018-09-22T05:02:44.148Z,11.30
2018-09-22T05:05:11.970Z,11.40
2018-09-22T05:07:39.788Z,11.50
2018-09-22T05:10:07.728Z,11.60
2018-09-22T05:12:35.610Z,11.60
2018-09-22T05:15:03.421Z,11.60
2018-09-22T05:17:31.420Z,11.60
2018-09-22T05:19:59.265Z,11.60
2018-09-22T05:22:27.070Z,11.70
2018-09-22T05:24:55.009Z,11.70
2018-09-22T05:27:22.723Z,11.70
2018-09-22T05:29:50.552Z,11.70
2018-09-22T05:32:18.439Z,11.70
2018-09-22T05:34:46.254Z,11.70
2018-09-22T05:37:14.060Z,11.70
2018-09-22T05:39:41.871Z,11.80
2018-09-22T05:42:09.629Z,11.90
2018-09-22T05:44:37.350Z,12.00
2018-09-22T05:47:05.632Z,12.20
2018-09-22T05:49:33.440Z,12.20
2018-09-22T05:52:01.253Z,12.20
2018-09-22T05:54:29.083Z,12.20
2018-09-22T05:56:56.955Z,12.30
2018-09-22T05:59:24.813Z,12.30
2018-09-22T06:01:52.645Z,12.30
2018-09-22T06:04:20.459Z,12.30
2018-09-22T06:06:48.320Z,12.30
2018-09-22T06:09:16.161Z,12.30
2018-09-22T06:11:43.989Z,12.30
2018-09-22T06:14:11.780Z,12.40
2018-09-22T06:16:39.589Z,12.40
2018-09-22T06:19:07.393Z,12.50
2018-09-22T06:21:35.289Z,12.60
2018-09-22T06:24:03.114Z,12.60
2018-09-22T06:26:30.992Z,12.70
2018-09-22T06:28:58.737Z,12.80
2018-09-22T06:31:26.468Z,12.80
2018-09-22T06:33:54.315Z,12.90
2018-09-22T06:36:22.083Z,13.00
2018-09-22T06:38:50.006Z,13.00
2018-09-22T06:41:17.873Z,13.10
2018-09-22T06:43:45.701Z,13.20
2018-09-22T06:46:13.626Z,13.30
2018-09-22T06:48:41.393Z,13.40
2018-09-22T06:51:09.257Z,13.50
2018-09-22T06:53:37.074Z,13.70
2018-09-22T06:56:04.919Z,13.80
2018-09-22T06:58:32.809Z,13.90
2018-09-22T07:01:00.581Z,13.90
2018-09-22T07:03:28.319Z,14.10
2018-09-22T07:05:56.390Z,14.10
2018-09-22T07:08:24.136Z,14.20
2018-09-22T07:10:52.437Z,14.30
2018-09-22T07:13:25.018Z,14.40
2018-09-22T07:15:52.929Z,14.50
2018-09-22T07:18:20.728Z,14.50
2018-09-22T07:20:54.216Z,14.60
2018-09-22T07:23:22.043Z,14.70
2018-09-22T07:25:49.754Z,14.70
2018-09-22T07:28:17.497Z,14.80
2018-09-22T07:30:45.391Z,14.80
2018-09-22T07:33:13.214Z,14.90
2018-09-22T07:35:40.956Z,14.90
2018-09-22T07:38:08.771Z,15.00
2018-09-22T07:40:36.565Z,15.10
2018-09-22T07:43:04.432Z,15.10
2018-09-22T07:45:32.329Z,15.20
2018-09-22T07:48:00.158Z,15.20
2018-09-22T07:50:27.991Z,15.20
2018-09-22T07:52:55.758Z,15.30
2018-09-22T07:55:23.648Z,15.40
2018-09-22T07:57:51.463Z,15.40
2018-09-22T08:00:19.364Z,15.50
2018-09-22T08:02:47.120Z,15.60
2018-09-22T08:05:14.975Z,15.70
2018-09-22T08:07:42.777Z,15.80
2018-09-22T08:10:10.633Z,15.90
2018-09-22T08:12:38.452Z,15.90
2018-09-22T08:15:06.538Z,16.00
2018-09-22T08:17:34.381Z,16.00
2018-09-22T08:20:02.236Z,16.20
2018-09-22T08:22:30.058Z,16.30
2018-09-22T08:24:57.905Z,16.40
2018-09-22T08:27:25.878Z,16.40
2018-09-22T08:29:53.687Z,16.50
2018-09-22T08:32:21.543Z,16.60
2018-09-22T08:34:49.373Z,16.60
2018-09-22T08:37:17.395Z,16.80
2018-09-22T08:39:45.216Z,16.90
2018-09-22T08:42:13.076Z,17.10
2018-09-22T08:44:40.957Z,17.30
2018-09-22T08:47:08.834Z,17.70
2018-09-22T08:49:36.685Z,18.20
2018-09-22T08:52:04.553Z,18.40
2018-09-22T08:54:32.524Z,18.60
2018-09-22T08:57:00.379Z,18.70
2018-09-22T08:59:28.204Z,19.00
2018-09-22T09:01:56.020Z,19.20
2018-09-22T09:04:23.934Z,19.50
2018-09-22T09:06:51.774Z,19.90
2018-09-22T09:09:19.628Z,20.40
2018-09-22T09:11:47.425Z,20.60
2018-09-22T09:14:15.257Z,20.80
2018-09-22T09:16:43.096Z,20.70
2018-09-22T09:19:10.919Z,20.70
2018-09-22T09:21:38.688Z,20.70
2018-09-22T09:24:06.484Z,20.70
2018-09-22T09:26:34.321Z,20.80
2018-09-22T09:29:02.161Z,20.90
2018-09-22T09:31:30.077Z,21.10
2018-09-22T09:33:57.861Z,21.20
2018-09-22T09:36:25.640Z,21.40
2018-09-22T09:38:57.820Z,21.80
2018-09-22T09:41:25.641Z,22.20
2018-09-22T09:43:53.449Z,22.70
2018-09-22T09:46:21.344Z,22.90
2018-09-22T09:48:49.116Z,22.70
2018-09-22T09:51:16.949Z,22.40
2018-09-22T09:53:44.769Z,21.90
2018-09-22T09:56:12.685Z,21.70
2018-09-22T09:58:40.464Z,21.40
2018-09-22T10:01:08.350Z,21.10
2018-09-22T10:03:36.100Z,21.30
2018-09-22T10:06:04.026Z,21.60
2018-09-22T10:08:31.805Z,21.60
2018-09-22T10:10:59.598Z,21.40
2018-09-22T10:13:27.497Z,21.40
2018-09-22T10:15:55.312Z,21.30
2018-09-22T10:18:23.625Z,21.30
2018-09-22T10:20:51.437Z,21.40
2018-09-22T10:23:19.265Z,21.60
2018-09-22T10:25:47.068Z,21.90
2018-09-22T10:28:14.915Z,22.60
2018-09-22T10:30:42.758Z,23.00
2018-09-22T10:33:10.520Z,23.10
2018-09-22T10:35:38.299Z,22.80
2018-09-22T10:38:06.129Z,22.50
2018-09-22T10:40:33.938Z,22.70
2018-09-22T10:43:01.733Z,22.90
2018-09-22T10:45:29.584Z,23.10
2018-09-22T10:47:57.435Z,22.90
2018-09-22T10:50:25.193Z,22.70
2018-09-22T10:52:53.065Z,22.90
2018-09-22T10:55:20.727Z,23.10
2018-09-22T10:57:48.526Z,23.30
2018-09-22T11:00:16.317Z,23.40
2018-09-22T11:02:44.117Z,23.40
2018-09-22T11:05:11.840Z,23.50
2018-09-22T11:07:39.651Z,23.60
2018-09-22T11:10:07.508Z,23.70
2018-09-22T11:12:35.220Z,23.60
2018-09-22T11:15:03.038Z,23.30
2018-09-22T11:17:30.813Z,22.80
2018-09-22T11:19:58.757Z,22.40
2018-09-22T11:22:26.631Z,22.20
2018-09-22T11:24:54.522Z,21.90
2018-09-22T11:27:22.337Z,21.50
2018-09-22T11:29:50.112Z,21.30
2018-09-22T11:32:17.953Z,21.30
2018-09-22T11:34:45.761Z,21.60
2018-09-22T11:37:13.683Z,21.70
2018-09-22T11:39:41.528Z,22.00
2018-09-22T11:42:09.363Z,21.90
2018-09-22T11:44:37.188Z,21.80
2018-09-22T11:47:05.085Z,21.80
2018-09-22T11:49:32.984Z,21.80
2018-09-22T11:52:00.868Z,21.90
2018-09-22T11:54:28.684Z,22.10
2018-09-22T11:56:56.560Z,22.10
2018-09-22T11:59:24.452Z,22.00
2018-09-22T12:01:52.291Z,22.10
2018-09-22T12:04:20.142Z,22.10
2018-09-22T12:06:48.096Z,22.00
2018-09-22T12:09:17.892Z,21.80
2018-09-22T12:11:45.845Z,21.60
2018-09-22T12:14:19.393Z,21.60
2018-09-22T12:16:47.231Z,21.70
2018-09-22T12:19:15.088Z,21.70
2018-09-22T12:21:46.850Z,21.70
2018-09-22T12:24:16.008Z,21.80
2018-09-22T12:26:50.428Z,21.90
2018-09-22T12:29:18.358Z,21.90
2018-09-22T12:31:46.267Z,22.00
2018-09-22T12:34:14.044Z,22.10
2018-09-22T12:36:41.975Z,22.30
2018-09-22T12:39:11.112Z,22.50
2018-09-22T12:41:40.199Z,22.60
2018-09-22T12:44:08.441Z,22.60
2018-09-22T12:46:36.341Z,22.70
2018-09-22T12:49:04.260Z,22.60
2018-09-22T12:51:32.697Z,22.80
2018-09-22T12:54:00.464Z,23.10
2018-09-22T12:56:28.297Z,23.20
2018-09-22T12:58:56.018Z,23.10
2018-09-22T13:01:23.783Z,23.00
2018-09-22T13:03:51.604Z,22.70
2018-09-22T13:06:32.025Z,22.30
2018-09-22T13:08:59.909Z,22.10
2018-09-22T13:11:27.697Z,21.90
2018-09-22T13:13:55.477Z,21.80
2018-09-22T13:16:23.272Z,21.90
2018-09-22T13:18:51.165Z,22.00
2018-09-22T13:21:18.932Z,22.10
2018-09-22T13:23:46.773Z,22.10
2018-09-22T13:26:14.493Z,22.00
2018-09-22T13:28:42.241Z,22.00
2018-09-22T13:31:09.989Z,21.90
2018-09-22T13:33:37.877Z,21.90
2018-09-22T13:36:05.867Z,22.00
2018-09-22T13:38:33.741Z,22.10
2018-09-22T13:41:01.493Z,22.10
2018-09-22T13:43:29.414Z,22.20
2018-09-22T13:46:06.891Z,22.10
2018-09-22T13:48:34.754Z,21.90
2018-09-22T13:51:02.578Z,21.80
2018-09-22T13:53:30.402Z,21.70
2018-09-22T13:55:58.160Z,21.70
2018-09-22T13:58:26.016Z,21.60
2018-09-22T14:00:53.841Z,21.50
2018-09-22T14:03:21.706Z,21.40
2018-09-22T14:05:49.565Z,21.30
2018-09-22T14:08:17.380Z,21.20
2018-09-22T14:10:45.241Z,21.10
2018-09-22T14:13:13.292Z,21.10
2018-09-22T14:15:41.108Z,21.00
2018-09-22T14:18:08.888Z,20.90
2018-09-22T14:20:42.612Z,20.70
2018-09-22T14:23:10.436Z,20.60
2018-09-22T14:25:38.274Z,20.50
2018-09-22T14:28:06.174Z,20.50
2018-09-22T14:30:33.981Z,20.40
2018-09-22T14:33:01.812Z,20.20
2018-09-22T14:35:29.646Z,20.10
2018-09-22T14:37:57.468Z,20.00
2018-09-22T14:40:25.348Z,19.90
2018-09-22T14:42:53.157Z,19.80
2018-09-22T14:45:20.956Z,19.80
2018-09-22T14:47:48.690Z,19.60
2018-09-22T14:50:16.543Z,19.50
2018-09-22T14:52:44.348Z,19.40
2018-09-22T14:55:12.929Z,19.40
2018-09-22T14:57:40.800Z,19.30
2018-09-22T15:00:08.661Z,19.20
2018-09-22T15:02:36.486Z,19.10
2018-09-22T15:05:04.456Z,19.00
2018-09-22T15:07:32.319Z,19.00
2018-09-22T15:10:00.133Z,18.90
2018-09-22T15:12:28.003Z,18.80
2018-09-22T15:14:55.738Z,18.70
2018-09-22T15:17:23.600Z,18.70
2018-09-22T15:19:51.441Z,18.60
2018-09-22T15:22:19.239Z,18.60
2018-09-22T15:24:47.030Z,18.50
2018-09-22T15:27:14.892Z,18.50
2018-09-22T15:29:43.113Z,18.50
2018-09-22T15:32:10.869Z,18.60
2018-09-22T15:34:38.673Z,18.50
2018-09-22T15:37:06.620Z,18.50
2018-09-22T15:39:34.349Z,18.50
2018-09-22T15:42:02.168Z,18.50
2018-09-22T15:44:29.976Z,18.40
2018-09-22T15:46:57.754Z,18.50
2018-09-22T15:49:25.641Z,18.40
2018-09-22T15:51:53.488Z,18.30
2018-09-22T15:54:21.284Z,18.30
2018-09-22T15:56:49.029Z,18.20
2018-09-22T15:59:16.848Z,18.20
2018-09-22T16:01:44.709Z,18.10
2018-09-22T16:04:12.522Z,18.00
2018-09-22T16:06:40.431Z,17.90
2018-09-22T16:09:09.024Z,17.80
2018-09-22T16:11:37.038Z,17.80
2018-09-22T16:14:04.958Z,17.70
2018-09-22T16:16:32.841Z,17.60
2018-09-22T16:19:00.956Z,17.60
2018-09-22T16:21:28.820Z,17.50
2018-09-22T16:23:56.659Z,17.40
2018-09-22T16:26:24.429Z,17.30
2018-09-22T16:28:52.260Z,17.20
2018-09-22T16:31:20.097Z,17.10
2018-09-22T16:33:47.951Z,17.00
2018-09-22T16:36:15.837Z,16.90
2018-09-22T16:38:43.694Z,16.80
2018-09-22T16:41:11.649Z,16.70
2018-09-22T16:43:39.459Z,16.50
2018-09-22T16:46:07.482Z,16.40
2018-09-22T16:48:35.438Z,16.30
2018-09-22T16:51:03.657Z,16.20
2018-09-22T16:53:31.456Z,16.00
2018-09-22T16:55:59.247Z,15.90
2018-09-22T16:58:27.231Z,15.70
2018-09-22T17:00:54.836Z,15.60
2018-09-22T17:03:22.657Z,15.50
2018-09-22T17:05:50.496Z,15.40
2018-09-22T17:08:18.389Z,15.20
2018-09-22T17:10:46.163Z,15.10
2018-09-22T17:13:13.931Z,15.00
2018-09-22T17:15:41.820Z,15.00
2018-09-22T17:18:09.573Z,14.90
2018-09-22T17:20:37.408Z,14.80
2018-09-22T17:23:05.380Z,14.70
2018-09-22T17:25:33.204Z,14.70
2018-09-22T17:28:01.021Z,14.60
2018-09-22T17:30:28.847Z,14.60
2018-09-22T17:32:56.689Z,14.60
2018-09-22T17:35:24.721Z,14.60
2018-09-22T17:37:52.572Z,14.60
2018-09-22T17:40:20.333Z,14.50
2018-09-22T17:42:48.056Z,14.50
2018-09-22T17:45:15.864Z,14.40
2018-09-22T17:47:43.714Z,14.40
2018-09-22T17:50:11.548Z,14.30
2018-09-22T17:52:39.312Z,14.20
2018-09-22T17:55:07.101Z,14.10
2018-09-22T17:57:35.029Z,14.00
2018-09-22T18:00:02.920Z,14.00
2018-09-22T18:02:30.689Z,13.90
2018-09-22T18:04:58.488Z,13.90
2018-09-22T18:07:26.290Z,13.90
2018-09-22T18:09:54.096Z,13.90
2018-09-22T18:12:21.861Z,13.80
2018-09-22T18:14:49.588Z,13.80
2018-09-22T18:17:17.361Z,13.80
2018-09-22T18:19:45.345Z,13.80
2018-09-22T18:22:13.236Z,13.80
2018-09-22T18:24:41.020Z,13.80
2018-09-22T18:27:08.819Z,13.80
2018-09-22T18:29:36.618Z,13.90
2018-09-22T18:32:04.633Z,13.90
2018-09-22T18:34:32.564Z,13.90
2018-09-22T18:37:00.354Z,14.00
2018-09-22T18:39:28.166Z,14.00
2018-09-22T18:41:55.971Z,14.10
2018-09-22T18:44:23.816Z,14.10
2018-09-22T18:46:51.618Z,14.10
2018-09-22T18:49:19.445Z,14.10
2018-09-22T18:51:47.224Z,14.00
2018-09-22T18:54:15.065Z,14.00
2018-09-22T18:56:42.943Z,14.00
2018-09-22T18:59:10.902Z,14.00
2018-09-22T19:01:38.849Z,14.00
2018-09-22T19:04:06.657Z,14.00
2018-09-22T19:06:34.486Z,14.00
2018-09-22T19:09:02.885Z,14.00
2018-09-22T19:11:30.729Z,13.90
2018-09-22T19:14:18.168Z,13.90
2018-09-22T19:16:56.563Z,13.90
2018-09-22T19:19:29.255Z,14.00
2018-09-22T19:21:59.664Z,14.00
2018-09-22T19:24:41.663Z,13.90
2018-09-22T19:27:12.720Z,13.90
2018-09-22T19:29:44.502Z,13.90
2018-09-22T19:32:22.891Z,13.90
2018-09-22T19:34:53.973Z,13.90
2018-09-22T19:37:25.296Z,13.90
2018-09-22T19:40:00.451Z,13.80
2018-09-22T19:42:38.580Z,13.90
2018-09-22T19:45:14.345Z,13.90
2018-09-22T19:47:50.649Z,13.90
2018-09-22T19:50:25.948Z,13.90
2018-09-22T19:52:53.704Z,13.90
2018-09-22T19:55:21.535Z,13.90
2018-09-22T19:57:57.708Z,13.90
2018-09-22T20:00:25.508Z,13.90
2018-09-22T20:02:53.356Z,14.00
2018-09-22T20:05:21.201Z,14.00
2018-09-22T20:07:48.990Z,14.00
2018-09-22T20:13:32.824Z,14.10
2018-09-22T20:16:00.676Z,14.10
2018-09-22T20:18:30.528Z,14.10
2018-09-22T20:20:58.396Z,14.20
2018-09-22T20:23:26.104Z,14.30
2018-09-22T20:25:54.016Z,14.30
2018-09-22T20:28:21.821Z,14.40
2018-09-22T20:30:53.184Z,14.40
2018-09-22T20:33:21.034Z,14.50
2018-09-22T20:35:48.919Z,14.50
2018-09-22T20:38:35.925Z,14.60
2018-09-22T20:41:03.750Z,14.60
2018-09-22T20:43:35.157Z,14.70
2018-09-22T20:46:09.262Z,14.70
2018-09-22T20:48:37.123Z,14.80
2018-09-22T20:51:05.005Z,14.80
2018-09-22T20:53:42.957Z,14.90
2018-09-22T20:56:10.996Z,14.90
2018-09-22T20:58:38.807Z,14.90
2018-09-22T21:01:06.666Z,15.00
2018-09-22T21:03:34.469Z,15.00
2018-09-22T21:06:02.371Z,15.00
2018-09-22T21:08:30.162Z,15.00
2018-09-22T21:10:58.025Z,15.10
2018-09-22T21:13:44.779Z,15.10
2018-09-22T21:16:12.677Z,15.20
2018-09-22T21:18:40.551Z,15.20
2018-09-22T21:21:08.353Z,15.20
2018-09-22T21:23:36.109Z,15.20
2018-09-22T21:26:03.970Z,15.30
2018-09-22T21:28:45.457Z,15.30
2018-09-22T21:31:24.457Z,15.30
2018-09-22T21:33:52.237Z,15.30
2018-09-22T21:36:20.114Z,15.30
2018-09-22T21:38:47.886Z,15.40
2018-09-22T21:41:15.722Z,15.40
2018-09-22T21:43:43.464Z,15.40
2018-09-22T21:46:11.288Z,15.40
2018-09-22T21:48:39.186Z,15.50
2018-09-22T21:51:07.072Z,15.50
2018-09-22T21:53:34.902Z,15.50
2018-09-22T21:56:02.779Z,15.50
2018-09-22T21:58:30.683Z,15.50
2018-09-22T22:00:58.453Z,15.50
2018-09-22T22:03:26.196Z,15.60
2018-09-22T22:05:53.960Z,15.50
2018-09-22T22:08:21.856Z,15.50
2018-09-22T22:10:49.672Z,15.50
2018-09-22T22:13:17.479Z,15.50
2018-09-22T22:15:45.313Z,15.50
2018-09-22T22:18:13.092Z,15.40
2018-09-22T22:20:40.989Z,15.50
2018-09-22T22:23:08.961Z,15.40
2018-09-22T22:25:36.752Z,15.30
2018-09-22T22:28:04.772Z,15.40
2018-09-22T22:30:32.613Z,15.30
2018-09-22T22:33:00.431Z,15.30
2018-09-22T22:35:28.247Z,15.30
2018-09-22T22:37:56.094Z,15.30
2018-09-22T22:40:24.041Z,15.40
2018-09-22T22:42:51.825Z,15.30
2018-09-22T22:45:19.732Z,15.30
2018-09-22T22:47:47.528Z,15.30
2018-09-22T22:50:15.345Z,15.30
2018-09-22T22:52:43.254Z,15.20
2018-09-22T22:55:11.096Z,15.20
2018-09-22T22:57:39.012Z,15.20
2018-09-22T23:00:07.477Z,15.10
2018-09-22T23:02:35.572Z,15.00
2018-09-22T23:05:03.440Z,14.80
2018-09-22T23:07:31.297Z,14.60
2018-09-22T23:09:59.054Z,14.50
2018-09-22T23:12:26.858Z,14.40
2018-09-22T23:14:54.693Z,14.30
2018-09-22T23:17:22.716Z,14.20
2018-09-22T23:19:50.532Z,14.10
2018-09-22T23:22:25.012Z,14.00
2018-09-22T23:24:52.833Z,14.00
2018-09-22T23:27:20.692Z,13.90
2018-09-22T23:29:48.490Z,13.80
2018-09-22T23:32:16.308Z,13.80
2018-09-22T23:34:44.183Z,13.70
2018-09-22T23:37:11.975Z,13.70
2018-09-22T23:39:39.818Z,13.70
2018-09-22T23:42:07.640Z,13.70
2018-09-22T23:44:35.565Z,13.70
2018-09-22T23:47:03.429Z,13.60
2018-09-22T23:49:31.247Z,13.60
2018-09-22T23:51:59.087Z,13.60
2018-09-22T23:54:26.914Z,13.50
2018-09-22T23:56:54.836Z,13.50
2018-09-22T23:59:22.611Z,13.40
